createdAt,value
2018-09-23T00:00:42.211Z,96741.00
2018-09-23T00:03:12.313Z,96758.00
2018-09-23T00:05:42.432Z,96769.00
2018-09-23T00:08:12.536Z,96772.00
2018-09-23T00:10:43.370Z,96776.00
2018-09-23T00:13:13.584Z,96791.00
2018-09-23T00:15:44.016Z,96794.00
2018-09-23T00:18:14.140Z,96780.00
2018-09-23T00:20:44.237Z,96779.00
2018-09-23T00:23:14.452Z,96775.00
2018-09-23T00:25:44.557Z,96756.00
2018-09-23T00:28:14.756Z,96771.00
2018-09-23T00:30:44.896Z,96774.00
2018-09-23T00:33:15.029Z,96775.00
2018-09-23T00:35:45.122Z,96759.00
2018-09-23T00:38:15.324Z,96763.00
2018-09-23T00:40:45.425Z,96759.00
2018-09-23T00:43:15.555Z,96752.00
2018-09-23T00:45:45.664Z,96762.00
2018-09-23T00:48:15.961Z,96768.00
2018-09-23T00:50:46.053Z,96744.00
2018-09-23T00:53:17.028Z,96742.00
2018-09-23T00:55:47.132Z,96735.00
2018-09-23T00:58:17.228Z,96745.00
2018-09-23T01:00:47.329Z,96741.00
2018-09-23T01:03:17.432Z,96734.00
2018-09-23T01:05:47.628Z,96727.00
2018-09-23T01:08:17.722Z,96734.00
2018-09-23T01:10:47.864Z,96731.00
2018-09-23T01:13:17.986Z,96732.00
2018-09-23T01:15:48.088Z,96743.00
2018-09-23T01:18:18.257Z,96739.00
2018-09-23T01:20:48.500Z,96727.00
2018-09-23T01:23:18.620Z,96729.00
2018-09-23T01:25:48.724Z,96712.00
2018-09-23T01:28:18.838Z,96695.00
2018-09-23T01:30:48.965Z,96695.00
2018-09-23T01:33:19.079Z,96704.00
2018-09-23T01:35:49.172Z,96701.00
2018-09-23T01:38:19.328Z,96700.00
2018-09-23T01:40:49.464Z,96692.00
2018-09-23T01:43:19.557Z,96692.00
2018-09-23T01:45:49.649Z,96686.00
2018-09-23T01:48:19.771Z,96699.00
2018-09-23T01:50:49.857Z,96699.00
2018-09-23T01:53:19.936Z,96701.00
2018-09-23T01:55:50.072Z,96698.00
2018-09-23T01:58:20.174Z,96703.00
2018-09-23T02:00:50.357Z,96686.00
2018-09-23T02:03:20.464Z,96680.00
2018-09-23T02:05:50.592Z,96677.00
2018-09-23T02:08:20.693Z,96671.00
2018-09-23T02:10:50.902Z,96668.00
2018-09-23T02:13:20.991Z,96673.00
2018-09-23T02:15:51.193Z,96678.00
2018-09-23T02:18:21.284Z,96689.00
2018-09-23T02:20:51.384Z,96691.00
2018-09-23T02:23:21.478Z,96698.00
2018-09-23T02:25:51.580Z,96680.00
2018-09-23T02:28:21.665Z,96680.00
2018-09-23T02:30:51.752Z,96677.00
2018-09-23T02:33:21.837Z,96675.00
2018-09-23T02:35:51.928Z,96682.00
2018-09-23T02:38:22.026Z,96677.00
2018-09-23T02:40:52.127Z,96680.00
2018-09-23T02:43:22.246Z,96693.00
2018-09-23T02:45:52.349Z,96688.00
2018-09-23T02:48:22.451Z,96688.00
2018-09-23T02:50:52.526Z,96686.00
2018-09-23T02:53:22.613Z,96684.00
2018-09-23T02:55:52.964Z,96674.00
2018-09-23T02:58:23.057Z,96687.00
2018-09-23T03:00:53.249Z,96697.00
2018-09-23T03:03:23.349Z,96699.00
2018-09-23T03:05:53.554Z,96698.00
2018-09-23T03:08:24.001Z,96697.00
2018-09-23T03:10:54.337Z,96692.00
2018-09-23T03:13:24.558Z,96684.00
2018-09-23T03:15:54.850Z,96685.00
2018-09-23T03:18:24.973Z,96691.00
2018-09-23T03:20:55.044Z,96703.00
2018-09-23T03:23:25.208Z,96695.00
2018-09-23T03:25:55.352Z,96683.00
2018-09-23T03:28:25.476Z,96675.00
2018-09-23T03:30:55.597Z,96669.00
2018-09-23T03:33:25.684Z,96687.00
2018-09-23T03:35:56.112Z,96695.00
2018-09-23T03:38:26.597Z,96692.00
2018-09-23T03:40:56.688Z,96692.00
2018-09-23T03:43:26.805Z,96692.00
2018-09-23T03:45:56.905Z,96687.00
2018-09-23T03:48:27.096Z,96670.00
2018-09-23T03:50:57.277Z,96673.00
2018-09-23T03:53:27.375Z,96664.00
2018-09-23T03:55:57.481Z,96666.00
2018-09-23T03:58:27.573Z,96670.00
2018-09-23T04:00:57.665Z,96676.00
2018-09-23T04:03:27.756Z,96669.00
2018-09-23T04:05:57.841Z,96675.00
2018-09-23T04:08:27.937Z,96682.00
2018-09-23T04:10:58.061Z,96683.00
2018-09-23T04:13:28.166Z,96677.00
2018-09-23T04:15:58.271Z,96671.00
2018-09-23T04:18:28.385Z,96677.00
2018-09-23T04:20:58.457Z,96688.00
2018-09-23T04:23:28.557Z,96682.00
2018-09-23T04:25:58.644Z,96685.00
2018-09-23T04:28:28.820Z,96681.00
2018-09-23T04:30:58.918Z,96680.00
2018-09-23T04:33:29.055Z,96670.00
2018-09-23T04:35:59.173Z,96680.00
2018-09-23T04:38:29.276Z,96665.00
2018-09-23T04:40:59.416Z,96671.00
2018-09-23T04:43:29.504Z,96681.00
2018-09-23T04:45:59.657Z,96669.00
2018-09-23T04:48:29.749Z,96664.00
2018-09-23T04:50:59.856Z,96665.00
2018-09-23T04:53:29.989Z,96663.00
2018-09-23T04:56:00.165Z,96674.00
2018-09-23T04:58:30.272Z,96692.00
2018-09-23T05:01:00.368Z,96698.00
2018-09-23T05:03:30.461Z,96680.00
2018-09-23T05:06:00.632Z,96686.00
2018-09-23T05:08:30.777Z,96688.00
2018-09-23T05:11:02.928Z,96692.00
2018-09-23T05:13:33.032Z,96676.00
2018-09-23T05:16:03.193Z,96680.00
2018-09-23T05:18:33.330Z,96673.00
2018-09-23T05:21:03.409Z,96677.00
2018-09-23T05:23:33.693Z,96677.00
2018-09-23T05:26:03.889Z,96689.00
2018-09-23T05:28:33.992Z,96697.00
2018-09-23T05:31:04.238Z,96698.00
2018-09-23T05:33:34.428Z,96699.00
2018-09-23T05:36:04.577Z,96688.00
2018-09-23T05:38:34.672Z,96696.00
2018-09-23T05:41:04.804Z,96693.00
2018-09-23T05:43:34.941Z,96685.00
2018-09-23T05:46:05.040Z,96687.00
2018-09-23T05:48:35.149Z,96695.00
2018-09-23T05:51:05.329Z,96693.00
2018-09-23T05:53:35.414Z,96699.00
2018-09-23T05:56:05.580Z,96688.00
2018-09-23T05:58:35.665Z,96691.00
2018-09-23T06:01:05.824Z,96699.00
2018-09-23T06:03:36.735Z,96697.00
2018-09-23T06:06:07.099Z,96701.00
2018-09-23T06:08:37.306Z,96704.00
2018-09-23T06:11:07.685Z,96704.00
2018-09-23T06:13:37.728Z,96695.00
2018-09-23T06:16:07.892Z,96707.00
2018-09-23T06:18:38.009Z,96702.00
2018-09-23T06:21:08.759Z,96698.00
2018-09-23T06:23:39.111Z,96693.00
2018-09-23T06:26:09.339Z,96689.00
2018-09-23T06:28:41.209Z,96686.00
2018-09-23T06:31:11.496Z,96701.00
2018-09-23T06:33:41.733Z,96697.00
2018-09-23T06:36:12.587Z,96697.00
2018-09-23T06:38:42.828Z,96698.00
2018-09-23T06:41:13.071Z,96701.00
2018-09-23T06:43:43.437Z,96712.00
2018-09-23T06:46:13.696Z,96701.00
2018-09-23T06:48:43.873Z,96711.00
2018-09-23T06:51:14.060Z,96706.00
2018-09-23T06:53:44.263Z,96710.00
2018-09-23T06:56:14.433Z,96696.00
2018-09-23T06:58:44.961Z,96692.00
2018-09-23T07:01:15.217Z,96690.00
2018-09-23T07:03:45.354Z,96693.00
2018-09-23T07:06:15.520Z,96701.00
2018-09-23T07:08:46.422Z,96705.00
2018-09-23T07:11:16.672Z,96707.00
2018-09-23T07:13:46.824Z,96703.00
2018-09-23T07:16:17.128Z,96706.00
2018-09-23T07:18:47.678Z,96701.00
2018-09-23T07:21:18.000Z,96696.00
2018-09-23T07:23:48.161Z,96691.00
2018-09-23T07:26:18.254Z,96691.00
2018-09-23T07:28:48.654Z,96685.00
2018-09-23T07:31:18.802Z,96693.00
2018-09-23T07:33:48.902Z,96690.00
2018-09-23T07:36:19.016Z,96705.00
2018-09-23T07:38:49.324Z,96702.00
2018-09-23T07:41:19.481Z,96714.00
2018-09-23T07:43:49.669Z,96695.00
2018-09-23T07:46:19.810Z,96704.00
2018-09-23T07:48:49.921Z,96694.00
2018-09-23T07:51:20.292Z,96706.00
2018-09-23T07:53:50.659Z,96670.00
2018-09-23T07:56:21.946Z,96688.00
2018-09-23T07:58:52.141Z,96682.00
2018-09-23T08:01:22.428Z,96685.00
2018-09-23T08:03:52.748Z,96672.00
2018-09-23T08:06:22.885Z,96677.00
2018-09-23T08:08:52.988Z,96677.00
2018-09-23T08:11:23.108Z,96678.00
2018-09-23T08:13:53.369Z,96691.00
2018-09-23T08:16:23.455Z,96688.00
2018-09-23T08:18:53.632Z,96704.00
2018-09-23T08:21:24.092Z,96701.00
2018-09-23T08:23:54.226Z,96692.00
2018-09-23T08:26:24.357Z,96698.00
2018-09-23T08:28:54.583Z,96691.00
2018-09-23T08:31:24.665Z,96688.00
2018-09-23T08:33:54.800Z,96702.00
2018-09-23T08:36:24.953Z,96686.00
2018-09-23T08:38:55.069Z,96702.00
2018-09-23T08:41:25.269Z,96706.00
2018-09-23T08:43:55.489Z,96704.00
2018-09-23T08:46:25.857Z,96708.00
2018-09-23T08:48:55.976Z,96695.00
2018-09-23T08:51:26.108Z,96689.00
2018-09-23T08:53:56.285Z,96697.00
2018-09-23T08:56:26.423Z,96695.00
2018-09-23T08:58:56.543Z,96695.00
2018-09-23T09:01:26.626Z,96700.00
2018-09-23T09:03:56.910Z,96698.00
2018-09-23T09:06:26.997Z,96689.00
2018-09-23T09:08:57.156Z,96697.00
2018-09-23T09:11:27.303Z,96706.00
2018-09-23T09:13:57.476Z,96679.00
2018-09-23T09:16:27.577Z,96689.00
2018-09-23T09:18:57.680Z,96689.00
2018-09-23T09:21:27.779Z,96701.00
2018-09-23T09:23:57.872Z,96695.00
2018-09-23T09:26:27.993Z,96709.00
2018-09-23T09:28:58.080Z,96704.00
2018-09-23T09:31:28.216Z,96701.00
2018-09-23T09:33:58.349Z,96699.00
2018-09-23T09:36:28.428Z,96686.00
2018-09-23T09:38:58.543Z,96694.00
2018-09-23T09:41:28.684Z,96681.00
2018-09-23T09:43:58.855Z,96682.00
2018-09-23T09:46:28.989Z,96673.00
2018-09-23T09:48:59.077Z,96679.00
2018-09-23T09:51:29.168Z,96672.00
2018-09-23T09:53:59.276Z,96656.00
2018-09-23T09:56:29.377Z,96660.00
2018-09-23T09:58:59.470Z,96667.00
2018-09-23T10:01:29.588Z,96672.00
2018-09-23T10:03:59.759Z,96668.00
2018-09-23T10:06:29.845Z,96667.00
2018-09-23T10:08:59.955Z,96668.00
2018-09-23T10:11:30.055Z,96664.00
2018-09-23T10:14:00.169Z,96661.00
2018-09-23T10:16:30.311Z,96646.00
2018-09-23T10:19:00.429Z,96644.00
2018-09-23T10:21:30.551Z,96637.00
2018-09-23T10:24:00.699Z,96646.00
2018-09-23T10:26:30.817Z,96653.00
2018-09-23T10:29:00.932Z,96641.00
2018-09-23T10:31:31.099Z,96639.00
2018-09-23T10:34:01.173Z,96647.00
2018-09-23T10:36:31.253Z,96638.00
2018-09-23T10:39:01.393Z,96645.00
2018-09-23T10:41:31.503Z,96654.00
2018-09-23T10:44:01.592Z,96656.00
2018-09-23T10:46:31.688Z,96648.00
2018-09-23T10:49:01.785Z,96649.00
2018-09-23T10:51:31.880Z,96644.00
2018-09-23T10:54:02.067Z,96645.00
2018-09-23T10:56:32.153Z,96631.00
2018-09-23T10:59:02.264Z,96631.00
2018-09-23T11:01:32.373Z,96613.00
2018-09-23T11:04:02.664Z,96604.00
2018-09-23T11:06:32.580Z,96588.00
2018-09-23T11:09:02.732Z,96588.00
2018-09-23T11:11:32.908Z,96590.00
2018-09-23T11:14:03.080Z,96580.00
2018-09-23T11:16:33.188Z,96573.00
2018-09-23T11:19:03.289Z,96581.00
2018-09-23T11:21:33.382Z,96573.00
2018-09-23T11:24:03.485Z,96550.00
2018-09-23T11:26:33.663Z,96542.00
2018-09-23T11:29:03.969Z,96545.00
2018-09-23T11:31:34.125Z,96531.00
2018-09-23T11:34:04.240Z,96531.00
2018-09-23T11:36:34.329Z,96533.00
2018-09-23T11:39:07.296Z,96530.00
2018-09-23T11:41:37.409Z,96526.00
2018-09-23T11:44:07.565Z,96527.00
2018-09-23T11:46:37.679Z,96520.00
2018-09-23T11:49:07.818Z,96518.00
2018-09-23T11:51:37.940Z,96512.00
2018-09-23T11:54:08.948Z,96507.00
2018-09-23T11:56:39.719Z,96507.00
2018-09-23T11:59:10.538Z,96493.00
2018-09-23T12:01:40.645Z,96492.00
2018-09-23T12:04:10.786Z,96499.00
2018-09-23T12:06:40.936Z,96491.00
2018-09-23T12:09:13.089Z,96488.00
2018-09-23T12:11:43.305Z,96470.00
2018-09-23T12:14:13.492Z,96470.00
2018-09-23T12:16:44.196Z,96472.00
2018-09-23T12:19:14.912Z,96471.00
2018-09-23T12:21:45.270Z,96465.00
2018-09-23T12:24:15.847Z,96462.00
2018-09-23T12:26:46.606Z,96462.00
2018-09-23T12:29:16.917Z,96461.00
2018-09-23T12:31:47.269Z,96456.00
2018-09-23T12:34:17.356Z,96442.00
2018-09-23T12:36:47.824Z,96434.00
2018-09-23T12:39:18.149Z,96431.00
2018-09-23T12:41:48.260Z,96426.00
2018-09-23T12:44:18.537Z,96428.00
2018-09-23T12:46:49.832Z,96417.00
2018-09-23T12:49:20.058Z,96428.00
2018-09-23T12:51:50.188Z,96435.00
2018-09-23T12:54:20.289Z,96411.00
2018-09-23T12:56:51.881Z,96403.00
2018-09-23T12:59:22.469Z,96408.00
2018-09-23T13:01:52.620Z,96395.00
2018-09-23T13:04:22.727Z,96400.00
2018-09-23T13:06:52.873Z,96405.00
2018-09-23T13:09:23.047Z,96395.00
2018-09-23T13:11:54.928Z,96388.00
2018-09-23T13:14:25.075Z,96380.00
2018-09-23T13:16:55.177Z,96368.00
2018-09-23T13:19:25.316Z,96358.00
2018-09-23T13:21:55.756Z,96366.00
2018-09-23T13:24:25.860Z,96360.00
2018-09-23T13:26:57.546Z,96361.00
2018-09-23T13:29:27.652Z,96353.00
2018-09-23T13:31:57.807Z,96353.00
2018-09-23T13:34:28.048Z,96360.00
2018-09-23T13:36:58.135Z,96361.00
2018-09-23T13:39:28.241Z,96350.00
2018-09-23T13:41:58.330Z,96339.00
2018-09-23T13:44:28.444Z,96338.00
2018-09-23T13:46:58.547Z,96333.00
2018-09-23T13:49:29.173Z,96331.00
2018-09-23T13:51:59.286Z,96321.00
2018-09-23T13:54:29.408Z,96311.00
2018-09-23T13:56:59.485Z,96310.00
2018-09-23T13:59:29.592Z,96319.00
2018-09-23T14:01:59.811Z,96312.00
2018-09-23T14:04:29.967Z,96311.00
2018-09-23T14:07:00.113Z,96294.00
2018-09-23T14:09:30.410Z,96297.00
2018-09-23T14:12:00.602Z,96291.00
2018-09-23T14:14:30.681Z,96276.00
2018-09-23T14:17:00.788Z,96290.00
2018-09-23T14:19:30.912Z,96273.00
2018-09-23T14:22:01.012Z,96278.00
2018-09-23T14:24:31.117Z,96273.00
2018-09-23T14:27:01.249Z,96270.00
2018-09-23T14:29:31.326Z,96261.00
2018-09-23T14:32:01.461Z,96263.00
2018-09-23T14:34:31.545Z,96248.00
2018-09-23T14:37:01.659Z,96239.00
2018-09-23T14:39:31.741Z,96232.00
2018-09-23T14:42:01.875Z,96238.00
2018-09-23T14:44:31.968Z,96232.00
2018-09-23T14:47:02.085Z,96234.00
2018-09-23T14:49:32.180Z,96228.00
2018-09-23T14:52:02.277Z,96213.00
2018-09-23T14:54:32.482Z,96209.00
2018-09-23T14:57:02.504Z,96200.00
2018-09-23T14:59:32.660Z,96196.00
2018-09-23T15:02:04.929Z,96198.00
2018-09-23T15:04:35.046Z,96205.00
2018-09-23T15:07:05.144Z,96196.00
2018-09-23T15:09:35.410Z,96189.00
2018-09-23T15:12:05.532Z,96190.00
2018-09-23T15:14:35.891Z,96180.00
2018-09-23T15:17:06.015Z,96178.00
2018-09-23T15:19:36.189Z,96174.00
2018-09-23T15:22:06.358Z,96175.00
2018-09-23T15:24:36.469Z,96163.00
2018-09-23T15:27:06.675Z,96162.00
2018-09-23T15:29:36.801Z,96150.00
2018-09-23T15:32:06.991Z,96148.00
2018-09-23T15:34:37.119Z,96152.00
2018-09-23T15:37:07.263Z,96146.00
2018-09-23T15:39:37.370Z,96140.00
2018-09-23T15:42:07.573Z,96132.00
2018-09-23T15:44:37.685Z,96125.00
2018-09-23T15:47:07.835Z,96127.00
2018-09-23T15:49:38.022Z,96124.00
2018-09-23T15:52:08.769Z,96125.00
2018-09-23T15:54:38.852Z,96133.00
2018-09-23T15:57:09.234Z,96131.00
2018-09-23T15:59:39.347Z,96126.00
2018-09-23T16:02:09.470Z,96111.00
2018-09-23T16:04:39.603Z,96108.00
2018-09-23T16:07:09.717Z,96095.00
2018-09-23T16:09:39.838Z,96092.00
2018-09-23T16:12:09.980Z,96093.00
2018-09-23T16:14:40.110Z,96084.00
2018-09-23T16:17:10.277Z,96078.00
2018-09-23T16:19:40.381Z,96070.00
2018-09-23T16:22:10.584Z,96057.00
2018-09-23T16:24:40.732Z,96048.00
2018-09-23T16:27:10.841Z,96047.00
2018-09-23T16:29:41.048Z,96040.00
2018-09-23T16:32:11.188Z,96029.00
2018-09-23T16:34:41.289Z,96031.00
2018-09-23T16:37:11.416Z,96030.00
2018-09-23T16:39:41.544Z,96030.00
2018-09-23T16:42:11.688Z,96036.00
2018-09-23T16:44:41.817Z,96035.00
2018-09-23T16:47:11.977Z,96033.00
2018-09-23T16:49:42.070Z,96019.00
2018-09-23T16:52:12.220Z,96007.00
2018-09-23T16:54:42.514Z,96017.00
2018-09-23T16:57:12.596Z,96004.00
2018-09-23T16:59:42.696Z,96012.00
2018-09-23T17:02:12.849Z,95993.00
2018-09-23T17:04:42.932Z,95994.00
2018-09-23T17:07:13.032Z,95988.00
2018-09-23T17:09:43.190Z,95975.00
2018-09-23T17:12:13.328Z,95988.00
2018-09-23T17:14:43.460Z,95960.00
2018-09-23T17:17:13.620Z,95970.00
2018-09-23T17:19:43.751Z,95954.00
2018-09-23T17:22:14.002Z,95952.00
2018-09-23T17:24:44.099Z,95938.00
2018-09-23T17:27:14.225Z,95936.00
2018-09-23T17:29:44.342Z,95940.00
2018-09-23T17:32:14.531Z,95941.00
2018-09-23T17:34:44.684Z,95925.00
2018-09-23T17:37:14.770Z,95930.00
2018-09-23T17:39:44.869Z,95914.00
2018-09-23T17:42:14.978Z,95924.00
2018-09-23T17:44:45.086Z,95920.00
2018-09-23T17:47:15.200Z,95913.00
2018-09-23T17:49:45.337Z,95913.00
2018-09-23T17:52:15.472Z,95901.00
2018-09-23T17:54:45.592Z,95908.00
2018-09-23T17:57:15.716Z,95908.00
2018-09-23T17:59:45.858Z,95916.00
2018-09-23T18:02:15.949Z,95898.00
2018-09-23T18:04:46.076Z,95900.00
2018-09-23T18:07:16.244Z,95876.00
2018-09-23T18:09:46.340Z,95879.00
2018-09-23T18:12:16.452Z,95879.00
2018-09-23T18:14:46.584Z,95870.00
2018-09-23T18:17:16.660Z,95865.00
2018-09-23T18:19:46.884Z,95862.00
2018-09-23T18:22:16.977Z,95851.00
2018-09-23T18:24:47.069Z,95842.00
2018-09-23T18:27:17.173Z,95840.00
2018-09-23T18:29:47.948Z,95832.00
2018-09-23T18:32:18.058Z,95837.00
2018-09-23T18:34:48.148Z,95843.00
2018-09-23T18:37:18.297Z,95833.00
2018-09-23T18:39:48.365Z,95821.00
2018-09-23T18:42:18.481Z,95818.00
2018-09-23T18:44:48.577Z,95821.00
2018-09-23T18:47:18.704Z,95800.00
2018-09-23T18:49:48.818Z,95807.00
2018-09-23T18:52:18.940Z,95799.00
2018-09-23T18:54:54.141Z,95804.00
2018-09-23T18:57:24.277Z,95798.00
2018-09-23T18:59:54.385Z,95783.00
2018-09-23T19:02:24.673Z,95772.00
2018-09-23T19:04:55.141Z,95760.00
2018-09-23T19:07:25.289Z,95766.00
2018-09-23T19:09:55.412Z,95741.00
2018-09-23T19:12:25.517Z,95754.00
2018-09-23T19:14:55.621Z,95743.00
2018-09-23T19:17:25.723Z,95749.00
2018-09-23T19:20:00.940Z,95732.00
2018-09-23T19:22:36.288Z,95699.00
2018-09-23T19:25:06.545Z,95722.00
2018-09-23T19:27:36.633Z,95724.00
2018-09-23T19:30:07.201Z,95707.00
2018-09-23T19:32:37.455Z,95701.00
2018-09-23T19:35:07.560Z,95692.00
2018-09-23T19:37:37.657Z,95704.00
2018-09-23T19:40:07.788Z,95695.00
2018-09-23T19:42:38.109Z,95688.00
2018-09-23T19:45:08.265Z,95702.00
2018-09-23T19:47:38.361Z,95689.00
2018-09-23T19:50:08.596Z,95691.00
2018-09-23T19:52:38.745Z,95709.00
2018-09-23T19:55:08.861Z,95693.00
2018-09-23T19:57:38.992Z,95658.00
2018-09-23T20:00:09.144Z,95665.00
2018-09-23T20:02:39.248Z,95674.00
2018-09-23T20:07:43.587Z,95651.00
2018-09-23T20:10:13.772Z,95645.00
2018-09-23T20:12:43.982Z,95644.00
2018-09-23T20:15:16.835Z,95635.00
2018-09-23T20:17:48.032Z,95639.00
2018-09-23T20:20:18.271Z,95629.00
2018-09-23T20:22:48.540Z,95624.00
2018-09-23T20:25:18.755Z,95632.00
2018-09-23T20:27:48.963Z,95630.00
2018-09-23T20:30:19.155Z,95625.00
2018-09-23T20:32:49.327Z,95626.00
2018-09-23T20:35:19.531Z,95622.00
2018-09-23T20:37:49.711Z,95616.00
2018-09-23T20:40:19.915Z,95609.00
2018-09-23T20:42:50.171Z,95629.00
2018-09-23T20:45:20.343Z,95594.00
2018-09-23T20:47:50.617Z,95583.00
2018-09-23T20:50:20.786Z,95584.00
2018-09-23T20:52:51.006Z,95580.00
2018-09-23T20:55:21.209Z,95579.00
2018-09-23T20:57:51.403Z,95608.00
2018-09-23T21:00:21.617Z,95627.00
2018-09-23T21:02:51.792Z,95614.00
2018-09-23T21:05:28.579Z,95574.00
2018-09-23T21:08:04.980Z,95612.00
2018-09-23T21:10:35.166Z,95616.00
2018-09-23T21:13:05.379Z,95597.00
2018-09-23T21:15:35.543Z,95551.00
2018-09-23T21:18:05.751Z,95559.00
2018-09-23T21:20:42.706Z,95591.00
2018-09-23T21:23:12.923Z,95561.00
2018-09-23T21:25:43.113Z,95542.00
2018-09-23T21:28:13.315Z,95530.00
2018-09-23T21:30:43.482Z,95517.00
2018-09-23T21:33:13.673Z,95495.00
2018-09-23T21:35:50.528Z,95460.00
2018-09-23T21:38:20.719Z,95432.00
2018-09-23T21:40:50.896Z,95386.00
2018-09-23T21:43:21.120Z,95362.00
2018-09-23T21:45:51.595Z,95384.00
2018-09-23T21:48:21.842Z,95396.00
2018-09-23T21:50:52.020Z,95372.00
2018-09-23T21:53:22.227Z,95406.00
2018-09-23T21:55:52.438Z,95426.00
2018-09-23T21:58:22.631Z,95431.00
2018-09-23T22:00:52.857Z,95462.00
2018-09-23T22:03:23.140Z,95475.00
2018-09-23T22:05:53.306Z,95486.00
2018-09-23T22:08:23.482Z,95490.00
2018-09-23T22:10:53.671Z,95522.00
2018-09-23T22:13:23.866Z,95552.00
2018-09-23T22:15:54.063Z,95548.00
2018-09-23T22:18:24.247Z,95570.00
2018-09-23T22:20:54.431Z,95577.00
2018-09-23T22:23:24.653Z,95573.00
2018-09-23T22:25:54.871Z,95577.00
2018-09-23T22:28:25.083Z,95578.00
2018-09-23T22:30:55.261Z,95578.00
2018-09-23T22:33:25.475Z,95573.00
2018-09-23T22:35:55.655Z,95566.00
2018-09-23T22:38:25.823Z,95563.00
2018-09-23T22:40:56.078Z,95588.00
2018-09-23T22:43:26.334Z,95593.00
2018-09-23T22:45:56.731Z,95601.00
2018-09-23T22:48:26.943Z,95622.00
2018-09-23T22:50:57.123Z,95616.00
2018-09-23T22:53:28.293Z,95616.00
2018-09-23T22:55:58.516Z,95632.00
2018-09-23T22:58:28.715Z,95629.00
2018-09-23T23:00:58.934Z,95646.00
2018-09-23T23:03:29.120Z,95651.00
2018-09-23T23:06:02.227Z,95650.00
2018-09-23T23:08:32.417Z,95645.00
2018-09-23T23:11:02.683Z,95660.00
2018-09-23T23:13:32.975Z,95676.00
2018-09-23T23:16:03.269Z,95662.00
2018-09-23T23:18:33.569Z,95681.00
2018-09-23T23:21:03.797Z,95686.00
2018-09-23T23:23:40.523Z,95697.00
2018-09-23T23:26:10.731Z,95719.00
2018-09-23T23:28:47.479Z,95724.00
2018-09-23T23:31:17.680Z,95729.00
2018-09-23T23:33:47.922Z,95740.00
2018-09-23T23:36:18.091Z,95757.00
2018-09-23T23:38:48.319Z,95775.00
2018-09-23T23:41:18.570Z,95789.00
2018-09-23T23:43:48.779Z,95796.00
2018-09-23T23:46:18.985Z,95799.00
2018-09-23T23:48:49.183Z,95814.00
2018-09-23T23:51:19.407Z,95835.00
2018-09-23T23:53:49.602Z,95840.00
2018-09-23T23:56:19.810Z,95839.00
2018-09-23T23:58:50.009Z,95853.00
